Time;durP1;ratioP1;P1;durP2;ratioP2;P2;SDS_P1;SDS_P2;PMS_P1;PMS_P2;Temp;Humidity;BMP_temperature;BMP_pressure;BME280_temperature;BME280_humidity;BME280_pressure;Samples;Min_cycle;Max_cycle;Signal;HPM_P1;HPM_P2
2022/09/22 00:05:00;;;;;;;12.90;6.93;;;;;;;;;;10337897;22;20349;-87
2022/09/22 00:09:04;;;;;;;12.18;6.72;;;;;;;;;;10356706;23;20031;-87
2022/09/22 00:13:06;;;;;;;12.73;7.72;;;;;;;;;;10339877;22;20467;-87
2022/09/22 00:17:10;;;;;;;13.70;7.00;;;;;;;;;;10337802;23;20027;-86
2022/09/22 00:21:16;;;;;;;16.02;7.95;;;;;;;;;;10338342;23;20341;-87
2022/09/22 00:25:19;;;;;;;12.82;6.95;;;;;;;;;;10355982;23;20020;-88
2022/09/22 00:29:22;;;;;;;15.07;7.63;;;;;;;;;;10339084;23;20336;-87
2022/09/22 00:33:27;;;;;;;12.75;7.75;;;;;;;;;;10338913;23;20073;-88
2022/09/22 00:37:34;;;;;;;12.15;6.57;;;;;;;;;;10337659;23;20275;-88
2022/09/22 00:41:43;;;;;;;16.50;9.73;;;;;;;;;;10337841;23;20086;-87
2022/09/22 00:45:49;;;;;;;22.02;11.93;;;;;;;;;;10337786;23;20115;-87
2022/09/22 00:50:01;;;;;;;21.98;11.52;;;;;;;;;;10337766;23;20186;-87
2022/09/22 00:54:14;;;;;;;19.48;10.95;;;;;;;;;;10337544;23;20021;-86
2022/09/22 00:58:22;;;;;;;20.17;11.50;;;;;;;;;;10338004;23;20507;-86
2022/09/22 01:02:24;;;;;;;18.60;11.23;;;;;;;;;;10338085;23;20036;-87
2022/09/22 01:06:28;;;;;;;18.85;9.55;;;;;;;;;;10338626;23;20023;-87
2022/09/22 01:10:35;;;;;;;17.67;10.23;;;;;;;;;;10339056;23;20027;-87
2022/09/22 01:14:53;;;;;;;16.83;10.40;;;;;;;;;;10336747;23;20028;-89
2022/09/22 01:19:15;;;;;;;18.02;9.98;;;;;;;;;;10336308;23;20020;-86
2022/09/22 01:23:52;;;;;;;20.10;10.90;;;;;;;;;;10337478;23;20024;-86
2022/09/22 01:28:19;;;;;;;20.02;11.50;;;;;;;;;;10354911;23;20023;-89
2022/09/22 01:32:30;;;;;;;18.17;10.98;;;;;;;;;;10353525;22;20020;-88
2022/09/22 01:36:37;;;;;;;30.67;11.73;;;;;;;;;;10354578;23;20456;-87
2022/09/22 01:40:47;;;;;;;23.25;10.98;;;;;;;;;;10354832;23;20020;-88
2022/09/22 01:44:54;;;;;;;18.15;11.23;;;;;;;;;;10354800;22;20031;-87
2022/09/22 01:49:08;;;;;;;21.85;11.65;;;;;;;;;;10336398;23;20103;-86
2022/09/22 01:53:18;;;;;;;22.20;11.88;;;;;;;;;;10335717;23;20416;-88
2022/09/22 01:57:26;;;;;;;19.92;10.77;;;;;;;;;;10336095;23;20054;-88
2022/09/22 02:01:33;;;;;;;21.05;11.32;;;;;;;;;;10335321;23;20141;-89
2022/09/22 02:05:45;;;;;;;21.67;10.57;;;;;;;;;;10342353;23;20031;-87
2022/09/22 02:09:54;;;;;;;21.52;10.98;;;;;;;;;;10335900;23;20024;-87
2022/09/22 02:13:58;;;;;;;16.90;9.60;;;;;;;;;;10335653;23;20093;-87
2022/09/22 02:18:06;;;;;;;20.45;10.60;;;;;;;;;;10334184;23;20047;-87
2022/09/22 02:22:13;;;;;;;24.83;11.50;;;;;;;;;;10335534;23;20020;-87
2022/09/22 02:26:22;;;;;;;20.77;11.02;;;;;;;;;;10336426;23;20606;-87
2022/09/22 02:30:29;;;;;;;26.27;11.48;;;;;;;;;;10334161;23;20024;-87
2022/09/22 02:34:32;;;;;;;19.80;11.18;;;;;;;;;;10333931;23;20363;-89
2022/09/22 02:38:46;;;;;;;22.25;11.63;;;;;;;;;;10332317;23;20047;-88
2022/09/22 02:42:54;;;;;;;22.98;11.75;;;;;;;;;;10332553;23;20079;-88
2022/09/22 02:47:02;;;;;;;29.02;11.23;;;;;;;;;;10332963;23;20035;-87
2022/09/22 02:51:08;;;;;;;24.27;10.77;;;;;;;;;;10350536;22;20459;-89
2022/09/22 02:55:17;;;;;;;22.08;10.63;;;;;;;;;;10351602;23;20083;-88
2022/09/22 02:59:22;;;;;;;22.40;12.75;;;;;;;;;;10351446;23;20448;-87
2022/09/22 03:03:25;;;;;;;22.58;10.52;;;;;;;;;;10333591;23;20348;-89
2022/09/22 03:07:27;;;;;;;28.38;11.90;;;;;;;;;;10333395;23;20062;-87
2022/09/22 03:11:31;;;;;;;26.80;11.65;;;;;;;;;;10334368;23;20022;-88
2022/09/22 03:15:34;;;;;;;25.70;12.05;;;;;;;;;;10334086;23;20726;-88
2022/09/22 03:19:39;;;;;;;27.90;10.40;;;;;;;;;;10335519;23;20024;-88
2022/09/22 03:23:41;;;;;;;27.67;8.93;;;;;;;;;;10333780;23;20024;-86
2022/09/22 03:27:46;;;;;;;16.42;8.80;;;;;;;;;;10335765;23;20020;-86
2022/09/22 03:31:49;;;;;;;31.42;9.32;;;;;;;;;;10338005;23;20024;-87
2022/09/22 03:35:52;;;;;;;31.13;8.88;;;;;;;;;;10337756;23;20491;-87
2022/09/22 03:39:55;;;;;;;22.52;8.85;;;;;;;;;;10338287;23;20137;-87
2022/09/22 03:44:03;;;;;;;19.38;9.13;;;;;;;;;;10339235;23;20048;-88
2022/09/22 03:48:08;;;;;;;20.13;8.38;;;;;;;;;;10337449;23;20020;-87
2022/09/22 03:52:16;;;;;;;23.63;8.13;;;;;;;;;;10339624;23;20475;-87
2022/09/22 03:56:19;;;;;;;29.40;9.60;;;;;;;;;;10341164;23;20024;-89
2022/09/22 04:00:27;;;;;;;29.92;9.20;;;;;;;;;;10338346;23;20091;-88
2022/09/22 04:04:31;;;;;;;36.60;10.02;;;;;;;;;;10336407;23;20144;-87
2022/09/22 04:08:34;;;;;;;27.55;10.65;;;;;;;;;;10337302;23;20032;-86
2022/09/22 04:12:36;;;;;;;44.47;11.65;;;;;;;;;;10340760;23;20043;-87
2022/09/22 04:16:41;;;;;;;25.52;10.93;;;;;;;;;;10339193;23;20020;-87
2022/09/22 04:20:44;;;;;;;22.30;10.02;;;;;;;;;;10339974;23;20451;-87
2022/09/22 04:24:47;;;;;;;24.67;10.52;;;;;;;;;;10339817;23;20020;-86
2022/09/22 04:28:49;;;;;;;17.75;8.98;;;;;;;;;;10337334;23;20027;-86
2022/09/22 04:32:53;;;;;;;19.15;9.82;;;;;;;;;;10337947;23;20107;-86
2022/09/22 04:36:56;;;;;;;23.25;10.73;;;;;;;;;;10336637;23;20020;-87
2022/09/22 04:41:00;;;;;;;32.38;10.63;;;;;;;;;;10337213;23;20491;-87
2022/09/22 04:45:02;;;;;;;20.75;10.48;;;;;;;;;;10339046;23;20024;-86
2022/09/22 04:49:09;;;;;;;19.13;10.80;;;;;;;;;;10338434;23;20459;-87
2022/09/22 04:53:13;;;;;;;20.75;11.32;;;;;;;;;;10337787;23;20034;-86
2022/09/22 04:57:18;;;;;;;26.20;11.18;;;;;;;;;;10349156;23;20043;-86
2022/09/22 05:01:21;;;;;;;20.73;10.95;;;;;;;;;;10366975;23;20024;-86
2022/09/22 05:05:25;;;;;;;19.13;10.57;;;;;;;;;;10365476;23;20024;-87
2022/09/22 05:09:28;;;;;;;23.15;12.90;;;;;;;;;;10370383;23;20070;-87
2022/09/22 05:13:30;;;;;;;20.75;11.02;;;;;;;;;;10370523;23;20039;-87
2022/09/22 05:17:34;;;;;;;20.67;9.63;;;;;;;;;;10370244;23;20024;-87
2022/09/22 05:21:39;;;;;;;20.20;10.35;;;;;;;;;;10368199;23;20019;-87
2022/09/22 05:25:42;;;;;;;22.20;10.20;;;;;;;;;;10341840;23;20341;-87
2022/09/22 05:29:46;;;;;;;21.17;10.20;;;;;;;;;;10339787;23;20337;-88
2022/09/22 05:33:48;;;;;;;28.05;11.18;;;;;;;;;;10338764;23;20091;-88
2022/09/22 05:37:54;;;;;;;30.67;13.38;;;;;;;;;;10339528;23;20380;-88
2022/09/22 05:41:56;;;;;;;29.10;13.38;;;;;;;;;;10337874;22;20070;-87
2022/09/22 05:45:59;;;;;;;30.95;14.88;;;;;;;;;;10338028;23;20016;-87
2022/09/22 05:50:01;;;;;;;27.05;12.02;;;;;;;;;;10338730;23;20016;-87
2022/09/22 05:54:08;;;;;;;28.35;13.65;;;;;;;;;;10337265;23;20020;-87
2022/09/22 05:58:12;;;;;;;23.40;12.57;;;;;;;;;;10336518;23;20348;-87
2022/09/22 06:02:17;;;;;;;21.58;11.18;;;;;;;;;;10335194;23;20047;-86
2022/09/22 06:06:22;;;;;;;29.00;12.07;;;;;;;;;;10333667;23;20407;-87
2022/09/22 06:10:29;;;;;;;27.15;12.23;;;;;;;;;;10336318;23;20642;-86
2022/09/22 06:14:34;;;;;;;22.60;11.32;;;;;;;;;;10336087;23;20020;-85
2022/09/22 06:18:37;;;;;;;28.17;15.15;;;;;;;;;;10335915;23;20406;-86
2022/09/22 06:22:43;;;;;;;28.30;15.10;;;;;;;;;;10337892;23;20524;-86
2022/09/22 06:26:54;;;;;;;25.58;11.80;;;;;;;;;;10353557;23;20016;-88
2022/09/22 06:30:59;;;;;;;19.55;8.88;;;;;;;;;;10339494;23;20047;-87
2022/09/22 06:35:04;;;;;;;15.25;7.47;;;;;;;;;;10338130;23;20020;-85
2022/09/22 06:39:07;;;;;;;17.33;8.63;;;;;;;;;;10332796;23;20024;-85
2022/09/22 06:43:21;;;;;;;26.35;13.15;;;;;;;;;;10331524;23;20019;-86
2022/09/22 06:47:24;;;;;;;26.40;13.90;;;;;;;;;;10328807;23;20032;-87
2022/09/22 06:51:31;;;;;;;31.02;14.32;;;;;;;;;;10329128;23;20028;-87
2022/09/22 06:55:36;;;;;;;29.42;13.25;;;;;;;;;;10329207;23;20032;-87
2022/09/22 06:59:44;;;;;;;36.00;15.77;;;;;;;;;;10330058;23;20070;-87
2022/09/22 07:03:49;;;;;;;40.50;15.13;;;;;;;;;;10329106;23;20024;-88
2022/09/22 07:07:55;;;;;;;37.92;16.45;;;;;;;;;;10329007;23;20024;-86
2022/09/22 07:11:59;;;;;;;27.20;13.68;;;;;;;;;;10329769;23;20028;-86
2022/09/22 07:16:06;;;;;;;28.30;13.65;;;;;;;;;;10331337;22;20079;-87
2022/09/22 07:20:09;;;;;;;32.90;18.23;;;;;;;;;;10348322;23;20023;-87
2022/09/22 07:24:13;;;;;;;32.03;17.67;;;;;;;;;;10328688;23;20054;-86
2022/09/22 07:28:16;;;;;;;27.00;15.82;;;;;;;;;;10329810;23;20055;-88
2022/09/22 07:32:22;;;;;;;29.30;16.52;;;;;;;;;;10329863;23;20023;-87
2022/09/22 07:36:28;;;;;;;25.35;13.98;;;;;;;;;;10347006;22;20344;-87
2022/09/22 07:40:31;;;;;;;19.48;10.38;;;;;;;;;;10346332;23;20094;-87
2022/09/22 07:48:56;;;;;;;19.63;11.60;;;;;;;;;;10345761;23;20024;-86
2022/09/22 07:52:58;;;;;;;25.25;12.52;;;;;;;;;;10329019;22;20093;-87
2022/09/22 07:57:09;;;;;;;21.90;12.70;;;;;;;;;;10329871;23;20116;-90
2022/09/22 08:01:16;;;;;;;19.95;11.60;;;;;;;;;;10328802;23;20067;-85
2022/09/22 08:05:27;;;;;;;22.52;12.85;;;;;;;;;;10328636;23;20034;-88
2022/09/22 08:37:14;;;;;;;23.35;14.07;;;;;;;;;;10382052;22;20061;-87
2022/09/22 08:47:02;;;;;;;19.80;11.35;;;;;;;;;;10381433;22;20343;-90
2022/09/22 08:56:29;;;;;;;17.60;10.18;;;;;;;;;;10396008;22;20027;-91
2022/09/22 09:00:42;;;;;;;17.73;10.60;;;;;;;;;;10409638;22;20091;-89
2022/09/22 09:05:14;;;;;;;15.63;9.65;;;;;;;;;;10395056;22;20123;-86
2022/09/22 09:24:20;;;;;;;16.27;9.02;;;;;;;;;;10247030;23;20260;-89
2022/09/22 09:33:52;;;;;;;23.58;11.63;;;;;;;;;;10232804;23;20068;-88
2022/09/22 09:37:58;;;;;;;22.05;11.32;;;;;;;;;;10250445;23;20159;-87
2022/09/22 09:42:03;;;;;;;15.63;8.82;;;;;;;;;;10250945;23;20070;-87
2022/09/22 09:46:15;;;;;;;11.73;6.50;;;;;;;;;;10236994;23;20024;-86
2022/09/22 09:50:18;;;;;;;;;;;;;;;;;;10236357;23;20029;-86
2022/09/22 09:54:23;;;;;;;11.13;6.28;;;;;;;;;;10237733;23;20514;-87
2022/09/22 10:03:06;;;;;;;13.87;8.90;;;;;;;;;;10274955;22;20007;-90
2022/09/22 10:07:15;;;;;;;19.38;9.32;;;;;;;;;;10247512;23;20502;-90
2022/09/22 10:11:29;;;;;;;21.67;11.15;;;;;;;;;;10231885;23;20040;-90
2022/09/22 10:15:35;;;;;;;12.57;8.00;;;;;;;;;;10305268;22;20070;-89
2022/09/22 10:19:38;;;;;;;11.27;7.50;;;;;;;;;;10399565;22;20089;-89
2022/09/22 11:01:46;;;;;;;13.07;7.55;;;;;;;;;;10381526;22;20065;-86
2022/09/22 12:12:23;;;;;;;7.93;4.90;;;;;;;;;;10380092;22;20066;-89
2022/09/22 12:16:50;;;;;;;7.07;3.85;;;;;;;;;;10384033;22;20442;-91
2022/09/22 12:35:12;;;;;;;8.65;5.88;;;;;;;;;;10375607;22;20051;-89
2022/09/22 12:39:31;;;;;;;13.18;8.10;;;;;;;;;;10382826;22;20034;-90
2022/09/22 13:01:01;;;;;;;18.67;11.35;;;;;;;;;;10383911;22;20153;-90
2022/09/22 13:25:59;;;;;;;13.73;6.32;;;;;;;;;;10312468;22;20074;-89
2022/09/22 13:30:50;;;;;;;8.65;5.95;;;;;;;;;;10311967;22;20013;-89
2022/09/22 13:59:03;;;;;;;8.52;5.43;;;;;;;;;;10333754;23;20094;-87
2022/09/22 14:03:12;;;;;;;7.57;4.13;;;;;;;;;;10341141;23;20020;-91
2022/09/22 14:07:15;;;;;;;7.35;4.63;;;;;;;;;;10306996;23;20016;-88
2022/09/22 14:11:21;;;;;;;8.32;4.47;;;;;;;;;;10337015;23;20078;-88
2022/09/22 14:15:42;;;;;;;7.07;4.70;;;;;;;;;;10337410;23;20023;-89
2022/09/22 14:19:47;;;;;;;6.45;4.07;;;;;;;;;;10355468;23;20020;-87
2022/09/22 14:23:53;;;;;;;8.60;5.03;;;;;;;;;;10311909;23;20024;-87
2022/09/22 14:27:59;;;;;;;3.15;1.90;;;;;;;;;;10335776;23;20020;-87
2022/09/22 14:32:10;;;;;;;5.10;2.15;;;;;;;;;;10355916;23;20015;-86
2022/09/22 14:36:18;;;;;;;4.40;2.00;;;;;;;;;;10310815;23;20474;-88
2022/09/22 14:40:23;;;;;;;5.47;3.20;;;;;;;;;;10311501;23;20042;-87
2022/09/22 14:44:41;;;;;;;6.70;2.80;;;;;;;;;;10337145;23;20069;-87
2022/09/22 14:48:48;;;;;;;4.45;2.50;;;;;;;;;;10353660;23;20020;-87
2022/09/22 14:52:57;;;;;;;6.03;3.63;;;;;;;;;;10310569;23;20384;-86
2022/09/22 14:57:11;;;;;;;5.03;2.67;;;;;;;;;;10308402;23;20027;-87
2022/09/22 15:05:46;;;;;;;9.52;4.28;;;;;;;;;;10335061;23;20027;-87
2022/09/22 15:09:56;;;;;;;9.65;4.50;;;;;;;;;;10352127;23;20016;-88
2022/09/22 15:13:59;;;;;;;11.50;5.03;;;;;;;;;;10306492;23;20074;-88
2022/09/22 15:27:34;;;;;;;14.18;6.88;;;;;;;;;;10179374;23;20100;-87
2022/09/22 15:31:38;;;;;;;12.68;5.40;;;;;;;;;;10291149;23;20020;-87
2022/09/22 15:40:35;;;;;;;17.25;8.40;;;;;;;;;;10322226;22;20349;-88
2022/09/22 15:44:43;;;;;;;12.52;5.18;;;;;;;;;;10333309;23;20456;-87
2022/09/22 15:48:49;;;;;;;19.48;9.60;;;;;;;;;;10307773;23;20052;-87
2022/09/22 15:52:58;;;;;;;23.98;9.48;;;;;;;;;;10306631;23;20028;-88
2022/09/22 15:57:04;;;;;;;17.20;10.07;;;;;;;;;;10306987;23;20090;-88
2022/09/22 16:01:13;;;;;;;22.42;10.77;;;;;;;;;;10307104;23;20416;-87
2022/09/22 16:05:17;;;;;;;23.38;12.20;;;;;;;;;;10307375;23;20345;-86
2022/09/22 16:09:25;;;;;;;25.80;12.77;;;;;;;;;;10307042;23;20035;-87
2022/09/22 16:13:30;;;;;;;30.45;14.45;;;;;;;;;;10306575;23;20024;-86
2022/09/22 16:17:44;;;;;;;36.40;16.15;;;;;;;;;;10333830;23;20099;-87
2022/09/22 16:21:51;;;;;;;25.67;12.57;;;;;;;;;;10307075;23;20028;-87
2022/09/22 16:25:59;;;;;;;26.85;12.40;;;;;;;;;;10306691;23;20081;-87
2022/09/22 16:30:04;;;;;;;21.50;11.13;;;;;;;;;;10306810;23;20034;-87
2022/09/22 16:34:25;;;;;;;24.90;11.88;;;;;;;;;;10306886;23;20035;-88
2022/09/22 16:43:41;;;;;;;37.10;16.55;;;;;;;;;;10300110;23;20568;-88
2022/09/22 16:47:47;;;;;;;33.80;14.77;;;;;;;;;;10283203;23;20022;-87
2022/09/22 16:51:53;;;;;;;30.88;15.63;;;;;;;;;;10301000;23;20074;-86
2022/09/22 16:56:07;;;;;;;43.88;20.80;;;;;;;;;;10283850;23;20016;-86
2022/09/22 17:00:24;;;;;;;39.97;19.65;;;;;;;;;;10288486;23;20016;-86
2022/09/22 17:04:27;;;;;;;50.00;23.77;;;;;;;;;;10286397;23;20381;-86
2022/09/22 17:08:32;;;;;;;63.08;26.48;;;;;;;;;;10286217;23;20020;-86
2022/09/22 17:12:35;;;;;;;54.63;23.80;;;;;;;;;;10285028;23;20441;-86
2022/09/22 17:16:42;;;;;;;55.38;26.10;;;;;;;;;;10285013;23;20025;-87
2022/09/22 17:20:48;;;;;;;60.75;26.88;;;;;;;;;;10285415;23;20471;-87
2022/09/22 17:24:57;;;;;;;52.70;25.65;;;;;;;;;;10284746;23;20024;-89
2022/09/22 17:29:54;;;;;;;55.22;26.95;;;;;;;;;;10274354;23;21228;-87
2022/09/22 17:43:52;;;;;;;54.22;29.00;;;;;;;;;;10289947;23;20033;-87
2022/09/22 17:56:37;;;;;;;71.88;38.47;;;;;;;;;;10284667;23;20342;-86
2022/09/22 18:00:41;;;;;;;56.75;28.83;;;;;;;;;;10285297;23;20045;-86
2022/09/22 18:04:47;;;;;;;56.67;33.38;;;;;;;;;;10285387;23;20032;-86
2022/09/22 18:08:53;;;;;;;66.80;29.73;;;;;;;;;;10303003;23;20020;-88
2022/09/22 18:12:56;;;;;;;75.13;35.63;;;;;;;;;;10283753;23;20067;-86
2022/09/22 18:17:05;;;;;;;76.88;33.35;;;;;;;;;;10284058;23;20412;-87
2022/09/22 18:21:15;;;;;;;66.82;30.67;;;;;;;;;;10278125;23;20020;-88
2022/09/22 18:25:22;;;;;;;51.85;24.98;;;;;;;;;;10301072;23;20024;-88
2022/09/22 18:29:28;;;;;;;62.80;30.02;;;;;;;;;;10283945;23;20025;-87
2022/09/22 18:33:31;;;;;;;64.38;32.30;;;;;;;;;;10283797;23;20353;-87
2022/09/22 18:37:42;;;;;;;67.63;31.27;;;;;;;;;;10284231;23;20027;-87
2022/09/22 18:46:33;;;;;;;51.53;25.13;;;;;;;;;;10318437;22;20527;-87
2022/09/22 18:50:39;;;;;;;44.65;23.35;;;;;;;;;;10290659;23;20051;-86
2022/09/22 18:54:43;;;;;;;34.47;17.98;;;;;;;;;;10310733;23;20444;-86
2022/09/22 18:58:47;;;;;;;32.15;18.13;;;;;;;;;;10297494;23;20044;-86
2022/09/22 19:02:49;;;;;;;40.08;19.33;;;;;;;;;;10262648;23;20036;-87
2022/09/22 19:11:16;;;;;;;42.92;23.55;;;;;;;;;;10259399;23;20028;-87
2022/09/22 19:15:22;;;;;;;40.00;22.00;;;;;;;;;;10302624;23;20028;-87
2022/09/22 19:19:25;;;;;;;36.47;19.70;;;;;;;;;;10286376;23;20017;-88
2022/09/22 19:23:29;;;;;;;39.03;20.40;;;;;;;;;;10285890;23;20523;-88
2022/09/22 19:27:33;;;;;;;40.45;19.92;;;;;;;;;;10286264;23;20028;-88
2022/09/22 19:31:39;;;;;;;40.45;20.73;;;;;;;;;;10302709;23;20020;-87
2022/09/22 19:35:41;;;;;;;41.33;21.48;;;;;;;;;;10285640;23;20023;-87
2022/09/22 19:39:44;;;;;;;38.97;20.85;;;;;;;;;;10285467;23;20024;-88
2022/09/22 19:43:49;;;;;;;41.10;20.60;;;;;;;;;;10258844;23;20037;-88
2022/09/22 19:47:54;;;;;;;41.42;21.10;;;;;;;;;;10308168;23;20028;-87
2022/09/22 19:51:57;;;;;;;36.33;20.15;;;;;;;;;;10310311;23;20470;-88
2022/09/22 19:56:01;;;;;;;40.85;19.90;;;;;;;;;;10282952;23;20028;-87
2022/09/22 20:00:07;;;;;;;36.65;20.17;;;;;;;;;;10335578;23;20027;-87
2022/09/22 20:04:20;;;;;;;34.95;20.50;;;;;;;;;;10335785;23;20087;-87
2022/09/22 20:08:24;;;;;;;38.50;20.30;;;;;;;;;;10309468;23;20030;-87
2022/09/22 20:12:29;;;;;;;39.92;22.45;;;;;;;;;;10311437;23;20099;-87
2022/09/22 20:16:33;;;;;;;64.72;33.47;;;;;;;;;;10339537;23;20028;-87
2022/09/22 20:20:36;;;;;;;57.90;30.27;;;;;;;;;;10339510;23;20065;-87
2022/09/22 20:24:38;;;;;;;50.58;27.58;;;;;;;;;;10339608;23;20078;-86
2022/09/22 20:28:41;;;;;;;57.00;29.55;;;;;;;;;;10339693;23;20445;-86
2022/09/22 20:32:46;;;;;;;44.80;22.92;;;;;;;;;;10312357;23;20090;-86
2022/09/22 20:36:48;;;;;;;53.03;27.38;;;;;;;;;;10356469;23;20460;-86
2022/09/22 20:40:51;;;;;;;44.97;26.25;;;;;;;;;;10339590;23;20016;-87
2022/09/22 20:44:53;;;;;;;49.38;26.58;;;;;;;;;;10339502;23;20438;-87
2022/09/22 20:48:58;;;;;;;48.90;26.45;;;;;;;;;;10339422;23;20377;-86
2022/09/22 20:53:01;;;;;;;45.35;25.30;;;;;;;;;;10356616;23;20050;-86
2022/09/22 20:57:03;;;;;;;46.58;26.08;;;;;;;;;;10351977;23;20016;-88
2022/09/22 21:01:06;;;;;;;44.83;23.20;;;;;;;;;;10371817;23;20020;-87
2022/09/22 21:05:10;;;;;;;40.40;22.23;;;;;;;;;;10373305;23;20067;-87
2022/09/22 21:13:33;;;;;;;42.65;22.77;;;;;;;;;;10385394;23;20024;-86
2022/09/22 21:17:35;;;;;;;44.88;23.58;;;;;;;;;;10368715;23;20020;-87
2022/09/22 21:21:39;;;;;;;36.38;20.02;;;;;;;;;;10367852;23;20016;-87
2022/09/22 21:25:43;;;;;;;42.35;20.88;;;;;;;;;;10384649;23;20020;-87
2022/09/22 21:29:46;;;;;;;39.33;19.98;;;;;;;;;;10341034;23;20116;-87
2022/09/22 21:33:49;;;;;;;36.53;19.80;;;;;;;;;;10339556;23;20480;-87
2022/09/22 21:37:56;;;;;;;38.95;20.88;;;;;;;;;;10338891;23;20020;-86
2022/09/22 21:42:01;;;;;;;40.33;20.67;;;;;;;;;;10355331;23;20420;-86
2022/09/22 21:46:08;;;;;;;36.28;20.48;;;;;;;;;;10338339;23;20016;-87
2022/09/22 21:50:13;;;;;;;35.03;19.65;;;;;;;;;;10262205;23;20055;-87
2022/09/22 21:54:19;;;;;;;49.60;22.98;;;;;;;;;;10261768;23;20025;-86
2022/09/22 21:58:36;;;;;;;52.03;21.95;;;;;;;;;;10299006;23;20032;-87
2022/09/22 22:06:54;;;;;;;38.08;20.05;;;;;;;;;;10289546;23;20016;-87
2022/09/22 22:11:07;;;;;;;41.97;20.55;;;;;;;;;;10287799;23;20052;-87
2022/09/22 22:15:10;;;;;;;37.63;20.48;;;;;;;;;;10304666;23;20017;-88
2022/09/22 22:19:14;;;;;;;42.08;20.45;;;;;;;;;;10288434;23;20047;-87
2022/09/22 22:23:17;;;;;;;34.47;17.30;;;;;;;;;;10287359;23;20026;-87
2022/09/22 22:27:21;;;;;;;37.65;18.75;;;;;;;;;;10287292;23;20021;-86
2022/09/22 22:31:24;;;;;;;41.63;20.60;;;;;;;;;;10287368;23;20016;-86
2022/09/22 22:35:29;;;;;;;45.72;20.08;;;;;;;;;;10286963;23;20348;-86
2022/09/22 22:39:32;;;;;;;37.85;18.33;;;;;;;;;;10285874;23;20030;-85
2022/09/22 22:43:39;;;;;;;31.17;17.25;;;;;;;;;;10285867;23;20031;-86
2022/09/22 22:47:44;;;;;;;35.53;18.80;;;;;;;;;;10285944;23;20031;-87
2022/09/22 22:51:48;;;;;;;34.63;18.00;;;;;;;;;;10285994;23;20032;-87
2022/09/22 22:55:57;;;;;;;38.80;18.83;;;;;;;;;;10285461;23;20024;-87
2022/09/22 23:00:06;;;;;;;39.05;20.77;;;;;;;;;;10285246;23;20605;-86
2022/09/22 23:04:15;;;;;;;36.70;18.92;;;;;;;;;;10286035;23;20035;-87
2022/09/22 23:08:18;;;;;;;34.03;16.92;;;;;;;;;;10286109;23;20469;-87
2022/09/22 23:12:23;;;;;;;35.63;18.05;;;;;;;;;;10286406;23;20345;-88
2022/09/22 23:17:27;;;;;;;33.47;16.80;;;;;;;;;;10278512;23;20445;-87
2022/09/22 23:21:31;;;;;;;36.53;16.70;;;;;;;;;;10286443;23;20433;-87
2022/09/22 23:25:36;;;;;;;30.98;16.98;;;;;;;;;;10286995;23;20414;-87
2022/09/22 23:29:38;;;;;;;32.97;17.40;;;;;;;;;;10287712;23;20023;-87
2022/09/22 23:33:45;;;;;;;31.75;16.88;;;;;;;;;;10286879;23;20021;-87
2022/09/22 23:37:52;;;;;;;27.00;14.38;;;;;;;;;;10285236;23;20039;-86
2022/09/22 23:41:56;;;;;;;28.33;15.25;;;;;;;;;;10285423;23;20017;-87
2022/09/22 23:46:03;;;;;;;28.63;16.73;;;;;;;;;;10287062;23;20027;-86
2022/09/22 23:50:07;;;;;;;31.40;17.05;;;;;;;;;;10289062;23;20021;-87
2022/09/22 23:54:14;;;;;;;36.63;16.98;;;;;;;;;;10288362;23;20348;-86
2022/09/22 23:58:20;;;;;;;34.00;18.15;;;;;;;;;;10288234;23;20495;-87
